Nemo, South Dakota
Current Conditions -  °F | °C
As of 7:58 PM on Thursday 27 Nov 2014 (Local Time) from KRCA Reporting Station
Clear Clear  
Wind Chill: -4°   Ceiling: Unl
Heat Index:   Visibility: 10mi
Dew Point: -4°   Wind: 8mph
Humidity: 77%   Direction: 260°W
Pressure: 29.85"   Gusts: NA
Location:  44.19°N, 103.51°W
Report Text: KRCA 280258Z AUTO 26007KT 10SM CLR 00/M04 A2985 RMK AO2 SLP149 T00001036 55003 $
Loading
Personal Weather Stations






























Interactive Weather Map New forecast layout! Learn more

10-Day Weather Forecast

Advertisements
Track Severe Weather on mobile